createdAt,value
2019-05-01T00:02:16.118Z,10.20
2019-05-01T00:05:11.454Z,10.20
2019-05-01T00:07:41.659Z,10.20
2019-05-01T00:10:13.027Z,10.10
2019-05-01T00:12:43.091Z,10.10
2019-05-01T00:15:14.682Z,10.10
2019-05-01T00:17:44.877Z,10.10
2019-05-01T00:20:15.267Z,10.10
2019-05-01T00:22:45.578Z,10.00
2019-05-01T00:25:15.827Z,10.00
2019-05-01T00:27:46.121Z,10.00
2019-05-01T00:30:29.356Z,10.00
2019-05-01T00:32:50.897Z,10.00
2019-05-01T00:35:21.041Z,9.90
2019-05-01T00:37:53.863Z,9.90
2019-05-01T00:40:24.027Z,9.90
2019-05-01T00:42:54.192Z,9.90
2019-05-01T00:45:24.432Z,9.80
2019-05-01T00:47:54.444Z,9.80
2019-05-01T00:50:24.686Z,9.80
2019-05-01T00:52:54.749Z,9.70
2019-05-01T00:55:46.142Z,9.70
2019-05-01T00:58:35.196Z,9.70
2019-05-01T01:01:20.515Z,9.70
2019-05-01T01:03:50.703Z,9.60
2019-05-01T01:06:20.982Z,9.50
2019-05-01T01:08:51.148Z,9.50
2019-05-01T01:11:21.322Z,9.50
2019-05-01T01:13:51.549Z,9.40
2019-05-01T01:16:21.747Z,9.40
2019-05-01T01:18:51.813Z,9.40
2019-05-01T01:21:22.015Z,9.40
2019-05-01T01:23:52.301Z,9.40
2019-05-01T01:26:22.676Z,9.30
2019-05-01T01:28:52.859Z,9.30
2019-05-01T01:31:23.025Z,9.30
2019-05-01T01:33:53.243Z,9.30
2019-05-01T01:36:23.452Z,9.20
2019-05-01T01:38:53.458Z,9.20
2019-05-01T01:41:23.848Z,9.20
2019-05-01T01:44:13.026Z,9.20
2019-05-01T01:46:44.389Z,9.20
2019-05-01T01:49:14.700Z,9.10
2019-05-01T01:51:45.139Z,9.10
2019-05-01T01:54:15.565Z,9.10
2019-05-01T01:56:45.981Z,9.10
2019-05-01T01:59:16.306Z,9.10
2019-05-01T02:02:05.459Z,9.00
2019-05-01T02:05:06.807Z,9.00
2019-05-01T02:07:37.402Z,9.00
2019-05-01T02:10:09.036Z,8.90
2019-05-01T02:12:41.676Z,8.90
2019-05-01T02:15:13.100Z,8.90
2019-05-01T02:17:43.299Z,8.90
2019-05-01T02:20:13.698Z,8.90
2019-05-01T02:22:44.005Z,8.90
2019-05-01T02:25:15.668Z,8.90
2019-05-01T02:28:04.005Z,8.90
2019-05-01T02:30:34.998Z,8.90
2019-05-01T02:33:05.828Z,8.80
2019-05-01T02:35:39.216Z,8.80
2019-05-01T02:38:10.782Z,8.80
2019-05-01T02:40:53.805Z,8.80
2019-05-01T02:43:26.980Z,8.80
2019-05-01T02:45:59.179Z,8.80
2019-05-01T02:48:33.403Z,8.80
2019-05-01T02:51:06.731Z,8.70
2019-05-01T02:53:39.860Z,8.70
2019-05-01T02:56:34.026Z,8.70
2019-05-01T02:59:06.867Z,8.70
2019-05-01T03:01:47.344Z,8.70
2019-05-01T03:04:11.088Z,8.70
2019-05-01T03:06:42.106Z,8.70
2019-05-01T03:09:12.608Z,8.80
2019-05-01T03:11:44.682Z,8.80
2019-05-01T03:14:18.953Z,8.80
2019-05-01T03:16:51.477Z,8.80
2019-05-01T03:19:43.309Z,8.80
2019-05-01T03:22:24.854Z,8.80
2019-05-01T03:24:55.482Z,8.90
2019-05-01T03:27:25.803Z,8.90
2019-05-01T03:29:56.257Z,8.90
2019-05-01T03:32:26.765Z,8.90
2019-05-01T03:34:57.535Z,9.00
2019-05-01T03:37:28.297Z,9.00
2019-05-01T03:39:58.595Z,9.00
2019-05-01T03:42:29.341Z,9.10
2019-05-01T03:45:00.127Z,9.10
2019-05-01T03:47:31.075Z,9.10
2019-05-01T03:50:01.393Z,9.20
2019-05-01T03:52:31.916Z,9.20
2019-05-01T03:55:02.538Z,9.30
2019-05-01T03:57:32.762Z,9.30
2019-05-01T04:00:05.162Z,9.30
2019-05-01T04:02:45.806Z,9.30
2019-05-01T04:05:16.231Z,9.30
2019-05-01T04:07:46.402Z,9.30
2019-05-01T04:10:17.736Z,9.30
2019-05-01T04:12:48.031Z,9.30
2019-05-01T04:15:18.432Z,9.30
2019-05-01T04:17:53.006Z,9.30
2019-05-01T04:20:23.413Z,9.40
2019-05-01T04:22:53.894Z,9.40
2019-05-01T04:25:24.901Z,9.50
2019-05-01T04:27:58.872Z,9.50
2019-05-01T04:30:37.977Z,9.50
2019-05-01T04:33:10.694Z,9.50
2019-05-01T04:35:58.734Z,9.50
2019-05-01T04:38:28.861Z,9.50
2019-05-01T04:40:59.074Z,9.60
2019-05-01T04:43:29.399Z,9.60
2019-05-01T04:45:59.826Z,9.60
2019-05-01T04:48:30.310Z,9.60
2019-05-01T04:51:00.721Z,9.60
2019-05-01T04:53:31.526Z,9.60
2019-05-01T04:56:01.842Z,9.60
2019-05-01T04:58:32.946Z,9.60
2019-05-01T05:01:04.052Z,9.60
2019-05-01T05:03:34.757Z,9.70
2019-05-01T05:06:05.338Z,9.70
2019-05-01T05:08:35.926Z,9.70
2019-05-01T05:11:11.495Z,9.70
2019-05-01T05:13:48.128Z,9.80
2019-05-01T05:16:36.067Z,9.80
2019-05-01T05:19:06.297Z,9.80
2019-05-01T05:21:36.656Z,9.80
2019-05-01T05:24:07.013Z,9.80
2019-05-01T05:26:37.333Z,9.80
2019-05-01T05:29:07.646Z,9.80
2019-05-01T05:31:38.384Z,9.90
2019-05-01T05:34:09.590Z,9.80
2019-05-01T05:36:41.506Z,9.90
2019-05-01T05:39:20.298Z,9.90
2019-05-01T05:41:52.095Z,9.90
2019-05-01T05:44:23.215Z,10.00
2019-05-01T05:46:53.521Z,9.90
2019-05-01T05:49:24.276Z,9.90
2019-05-01T05:52:06.430Z,10.00
2019-05-01T05:54:58.695Z,9.90
2019-05-01T05:57:52.649Z,10.00
2019-05-01T06:00:36.211Z,10.00
2019-05-01T06:03:31.285Z,10.00
2019-05-01T06:06:24.017Z,10.00
2019-05-01T06:08:57.607Z,10.00
2019-05-01T06:11:43.247Z,10.10
2019-05-01T06:14:34.528Z,10.10
2019-05-01T06:17:15.323Z,10.10
2019-05-01T06:19:59.306Z,10.10
2019-05-01T06:22:40.764Z,10.10
2019-05-01T06:25:22.659Z,10.00
2019-05-01T06:27:50.470Z,10.10
2019-05-01T06:30:21.003Z,10.10
2019-05-01T06:32:51.083Z,10.20
2019-05-01T06:35:21.423Z,10.20
2019-05-01T06:38:04.315Z,10.20
2019-05-01T06:40:44.205Z,10.20
2019-05-01T06:43:37.393Z,10.10
2019-05-01T06:46:27.387Z,10.00
2019-05-01T06:49:32.586Z,10.10
2019-05-01T06:52:03.882Z,10.10
2019-05-01T06:54:36.378Z,10.20
2019-05-01T06:57:07.832Z,10.20
2019-05-01T06:59:40.263Z,10.20
2019-05-01T07:02:15.850Z,10.20
2019-05-01T07:04:46.960Z,10.30
2019-05-01T07:07:25.095Z,10.30
2019-05-01T07:09:53.607Z,10.30
2019-05-01T07:12:28.350Z,10.30
2019-05-01T07:14:58.525Z,10.40
2019-05-01T07:17:28.926Z,10.40
2019-05-01T07:20:33.785Z,10.40
2019-05-01T07:23:17.121Z,10.50
2019-05-01T07:25:44.681Z,10.70
2019-05-01T07:28:15.010Z,10.80
2019-05-01T07:30:49.965Z,10.70
2019-05-01T07:33:20.670Z,10.80
2019-05-01T07:35:53.853Z,11.00
2019-05-01T07:38:23.473Z,11.10
2019-05-01T07:40:54.132Z,11.00
2019-05-01T07:43:41.908Z,10.90
2019-05-01T07:46:19.569Z,10.90
2019-05-01T07:48:50.132Z,10.90
2019-05-01T07:51:20.770Z,10.80
2019-05-01T07:53:52.437Z,11.00
2019-05-01T07:56:27.786Z,11.00
2019-05-01T07:58:54.947Z,11.00
2019-05-01T08:01:59.278Z,11.00
2019-05-01T08:04:36.949Z,11.00
2019-05-01T08:07:01.523Z,11.10
2019-05-01T08:09:31.770Z,11.10
2019-05-01T08:12:02.063Z,11.20
2019-05-01T08:14:32.229Z,11.20
2019-05-01T08:17:02.384Z,11.30
2019-05-01T08:19:51.456Z,11.40
2019-05-01T08:22:24.426Z,11.50
2019-05-01T08:24:58.741Z,11.50
2019-05-01T08:27:45.185Z,11.60
2019-05-01T08:30:54.061Z,11.60
2019-05-01T08:33:44.949Z,11.70
2019-05-01T08:36:15.841Z,11.80
2019-05-01T08:38:46.163Z,11.70
2019-05-01T08:41:16.358Z,11.80
2019-05-01T08:43:48.971Z,12.00
2019-05-01T08:46:37.545Z,12.10
2019-05-01T08:49:30.407Z,12.20
2019-05-01T08:52:04.915Z,12.20
2019-05-01T08:54:33.618Z,12.20
2019-05-01T08:57:04.621Z,12.20
2019-05-01T08:59:34.733Z,12.10
2019-05-01T09:02:09.469Z,12.00
2019-05-01T09:04:36.607Z,12.00
2019-05-01T09:07:06.868Z,11.90
2019-05-01T09:09:39.977Z,11.80
2019-05-01T09:12:12.032Z,11.90
2019-05-01T09:14:40.612Z,12.10
2019-05-01T09:17:10.683Z,12.20
2019-05-01T09:19:40.885Z,12.30
2019-05-01T09:22:10.985Z,12.10
2019-05-01T09:24:41.724Z,12.30
2019-05-01T09:27:31.320Z,12.40
2019-05-01T09:30:04.523Z,12.60
2019-05-01T09:32:35.109Z,12.80
2019-05-01T09:35:15.040Z,12.90
2019-05-01T09:37:49.654Z,13.00
2019-05-01T09:40:20.157Z,13.20
2019-05-01T09:42:50.423Z,13.10
2019-05-01T09:45:21.017Z,13.00
2019-05-01T09:49:42.404Z,13.20
2019-05-01T09:52:14.343Z,13.30
2019-05-01T09:54:57.999Z,13.40
2019-05-01T10:01:37.759Z,13.50
2019-05-01T10:04:47.411Z,13.70
2019-05-01T10:07:15.955Z,13.70
2019-05-01T10:11:07.169Z,14.10
2019-05-01T10:12:52.040Z,14.20
2019-05-01T10:15:22.252Z,14.30
2019-05-01T10:17:52.430Z,14.50
2019-05-01T10:20:22.777Z,14.80
2019-05-01T10:22:52.906Z,14.70
2019-05-01T10:25:23.096Z,14.80
2019-05-01T10:27:59.288Z,14.70
2019-05-01T10:30:48.207Z,13.80
2019-05-01T10:34:02.841Z,13.90
2019-05-01T10:36:35.259Z,14.20
2019-05-01T10:39:08.261Z,14.30
2019-05-01T10:41:41.194Z,14.00
2019-05-01T10:44:10.372Z,14.00
2019-05-01T10:46:40.522Z,14.10
2019-05-01T10:49:10.663Z,13.90
2019-05-01T10:51:40.777Z,14.40
2019-05-01T10:54:10.787Z,15.00
2019-05-01T10:56:40.938Z,14.90
2019-05-01T10:59:11.103Z,14.70
2019-05-01T11:01:46.922Z,14.50
2019-05-01T11:04:16.985Z,15.10
2019-05-01T11:06:47.126Z,15.30
2019-05-01T11:09:17.180Z,15.80
2019-05-01T11:11:47.426Z,16.30
2019-05-01T11:14:17.418Z,16.90
2019-05-01T11:16:47.757Z,16.80
2019-05-01T11:19:34.721Z,16.80
2019-05-01T11:22:05.058Z,16.90
2019-05-01T11:24:39.585Z,17.10
2019-05-01T11:27:09.838Z,17.60
2019-05-01T11:29:48.816Z,18.20
2019-05-01T11:33:00.980Z,18.90
2019-05-01T11:35:49.933Z,19.70
2019-05-01T11:38:34.508Z,18.70
2019-05-01T11:41:09.926Z,19.50
2019-05-01T11:44:10.363Z,19.50
2019-05-01T11:46:46.159Z,19.70
2019-05-01T11:55:44.989Z,21.30
2019-05-01T11:58:15.235Z,21.70
2019-05-01T12:00:46.758Z,21.80
2019-05-01T12:06:46.736Z,21.80
2019-05-01T12:09:19.197Z,22.80
2019-05-01T12:11:51.455Z,22.90
2019-05-01T12:14:21.495Z,22.90
2019-05-01T12:17:03.267Z,22.90
2019-05-01T12:19:33.447Z,23.00
2019-05-01T12:22:03.563Z,22.90
2019-05-01T12:24:33.544Z,23.80
2019-05-01T12:27:03.606Z,24.10
2019-05-01T12:29:33.603Z,23.90
2019-05-01T12:32:03.644Z,24.10
2019-05-01T12:34:33.738Z,24.30
2019-05-01T12:37:19.587Z,24.30
2019-05-01T12:39:50.325Z,24.70
2019-05-01T12:48:38.941Z,25.10
2019-05-01T12:51:09.564Z,25.30
2019-05-01T12:54:01.526Z,25.50
2019-05-01T12:56:52.571Z,25.30
2019-05-01T13:01:16.393Z,25.40
2019-05-01T13:02:28.309Z,25.50
2019-05-01T13:05:00.491Z,25.90
2019-05-01T13:11:26.418Z,26.00
2019-05-01T13:14:02.894Z,26.40
2019-05-01T13:16:35.191Z,26.00
2019-05-01T13:19:05.506Z,25.60
2019-05-01T13:25:17.061Z,25.60
2019-05-01T13:27:53.773Z,26.50
2019-05-01T13:30:49.189Z,26.90
2019-05-01T13:33:19.236Z,27.20
2019-05-01T13:35:49.524Z,27.30
2019-05-01T13:38:19.578Z,27.20
2019-05-01T13:40:49.725Z,26.80
2019-05-01T13:43:19.737Z,27.00
2019-05-01T13:45:49.824Z,27.00
2019-05-01T13:48:19.878Z,27.10
2019-05-01T13:50:49.975Z,27.10
2019-05-01T13:53:19.982Z,27.20
2019-05-01T13:55:50.030Z,26.60
2019-05-01T13:58:42.271Z,26.50
2019-05-01T14:01:42.442Z,25.90
2019-05-01T14:04:03.388Z,25.80
2019-05-01T14:06:35.880Z,25.80
2019-05-01T14:09:14.455Z,25.10
2019-05-01T14:11:47.770Z,24.80
2019-05-01T14:14:24.273Z,24.90
2019-05-01T14:20:01.988Z,25.00
2019-05-01T14:22:44.766Z,23.60
2019-05-01T14:25:15.016Z,24.20
2019-05-01T14:27:44.985Z,23.40
2019-05-01T14:30:15.150Z,23.40
2019-05-01T14:32:45.181Z,24.10
2019-05-01T14:35:15.456Z,24.60
2019-05-01T14:37:45.787Z,24.40
2019-05-01T14:40:16.163Z,23.70
2019-05-01T14:42:46.341Z,24.00
2019-05-01T14:45:17.243Z,23.40
2019-05-01T14:47:47.270Z,24.00
2019-05-01T14:50:17.441Z,24.00
2019-05-01T14:52:47.534Z,23.80
2019-05-01T14:55:18.097Z,23.60
2019-05-01T14:57:50.787Z,23.80
2019-05-01T15:00:21.110Z,24.00
2019-05-01T15:02:51.292Z,23.50
2019-05-01T15:05:21.339Z,23.20
2019-05-01T15:07:51.360Z,23.60
2019-05-01T15:10:21.482Z,23.70
2019-05-01T15:12:53.384Z,24.00
2019-05-01T15:15:37.689Z,24.00
2019-05-01T15:18:23.018Z,24.10
2019-05-01T15:20:53.034Z,24.10
2019-05-01T15:23:23.055Z,24.00
2019-05-01T15:25:53.088Z,24.00
2019-05-01T15:28:23.187Z,24.40
2019-05-01T15:30:53.973Z,24.30
2019-05-01T15:33:24.061Z,24.30
2019-05-01T15:35:54.118Z,24.30
2019-05-01T15:38:24.389Z,23.80
2019-05-01T15:41:28.785Z,23.50
2019-05-01T15:44:23.747Z,23.30
2019-05-01T15:46:53.961Z,23.20
2019-05-01T15:49:23.927Z,23.30
2019-05-01T15:51:53.890Z,23.30
2019-05-01T15:54:23.892Z,23.40
2019-05-01T15:56:53.979Z,23.00
2019-05-01T15:59:23.987Z,22.50
2019-05-01T16:01:53.987Z,22.80
2019-05-01T16:04:23.932Z,22.50
2019-05-01T16:06:54.049Z,22.40
2019-05-01T16:09:24.225Z,22.40
2019-05-01T16:12:13.131Z,22.00
2019-05-01T16:14:48.481Z,22.10
2019-05-01T16:17:18.669Z,22.00
2019-05-01T16:19:48.778Z,22.00
2019-05-01T16:22:18.992Z,21.90
2019-05-01T16:24:49.095Z,21.90
2019-05-01T16:27:19.038Z,22.00
2019-05-01T16:29:49.136Z,21.90
2019-05-01T16:32:21.067Z,21.80
2019-05-01T16:34:59.320Z,21.60
2019-05-01T16:38:27.159Z,21.50
2019-05-01T16:41:01.406Z,21.30
2019-05-01T16:43:35.945Z,20.90
2019-05-01T16:46:13.503Z,20.80
2019-05-01T16:48:43.668Z,20.70
2019-05-01T16:51:17.910Z,20.30
2019-05-01T16:53:50.989Z,19.90
2019-05-01T16:56:24.255Z,19.60
2019-05-01T16:59:00.985Z,19.20
2019-05-01T17:01:59.492Z,18.90
2019-05-01T17:08:35.313Z,18.70
2019-05-01T17:10:49.763Z,18.50
2019-05-01T17:13:26.901Z,18.30
2019-05-01T17:16:22.325Z,18.10
2019-05-01T17:18:57.539Z,18.00
2019-05-01T17:21:28.299Z,18.00
2019-05-01T17:23:58.892Z,17.80
2019-05-01T17:26:29.475Z,17.70
2019-05-01T17:28:59.999Z,17.40
2019-05-01T17:31:30.777Z,17.40
2019-05-01T17:34:01.413Z,17.30
2019-05-01T17:36:32.006Z,17.30
2019-05-01T17:39:02.647Z,17.20
2019-05-01T17:41:33.326Z,17.10
2019-05-01T17:44:04.056Z,17.00
2019-05-01T17:46:34.618Z,16.90
2019-05-01T17:49:09.158Z,16.80
2019-05-01T17:51:37.680Z,16.60
2019-05-01T17:54:08.631Z,16.60
2019-05-01T17:56:39.302Z,16.60
2019-05-01T17:59:10.005Z,16.40
2019-05-01T18:02:11.651Z,16.30
2019-05-01T18:04:56.120Z,16.10
2019-05-01T18:07:28.745Z,16.00
2019-05-01T18:10:00.412Z,15.90
2019-05-01T18:12:31.222Z,15.80
2019-05-01T18:15:01.940Z,15.70
2019-05-01T18:17:32.802Z,15.60
2019-05-01T18:20:03.379Z,15.50
2019-05-01T18:22:51.348Z,15.40
2019-05-01T18:25:33.115Z,15.40
2019-05-01T18:28:39.817Z,15.30
2019-05-01T18:31:15.548Z,15.30
2019-05-01T18:33:46.408Z,15.20
2019-05-01T18:36:19.937Z,15.10
2019-05-01T18:39:01.072Z,15.00
2019-05-01T18:41:59.948Z,14.90
2019-05-01T18:44:30.898Z,14.90
2019-05-01T18:47:01.717Z,14.80
2019-05-01T18:49:32.590Z,14.80
2019-05-01T18:52:03.416Z,14.80
2019-05-01T18:54:35.043Z,14.70
2019-05-01T18:57:07.517Z,14.70
2019-05-01T18:59:38.869Z,14.70
2019-05-01T19:02:09.829Z,14.60
2019-05-01T19:04:40.662Z,14.60
2019-05-01T19:07:12.397Z,14.60
2019-05-01T19:09:43.925Z,14.50
2019-05-01T19:12:16.248Z,14.40
2019-05-01T19:14:47.160Z,14.40
2019-05-01T19:17:19.038Z,14.30
2019-05-01T19:19:50.085Z,14.30
2019-05-01T19:22:21.458Z,14.20
2019-05-01T19:24:57.927Z,14.20
2019-05-01T19:27:28.721Z,14.10
2019-05-01T19:30:00.992Z,14.10
2019-05-01T19:32:33.370Z,14.00
2019-05-01T19:35:07.567Z,14.00
2019-05-01T19:37:39.469Z,14.00
2019-05-01T19:40:10.679Z,13.90
2019-05-01T19:42:47.749Z,13.90
2019-05-01T19:45:19.038Z,13.80
2019-05-01T19:47:49.923Z,13.80
2019-05-01T19:50:20.866Z,13.70
2019-05-01T19:52:52.955Z,13.70
2019-05-01T19:55:23.873Z,13.70
2019-05-01T19:57:54.689Z,13.60
2019-05-01T20:00:54.831Z,13.60
2019-05-01T20:03:25.846Z,13.50
2019-05-01T20:05:59.506Z,13.50
2019-05-01T20:08:29.703Z,13.50
2019-05-01T20:11:00.544Z,13.40
2019-05-01T20:13:31.931Z,13.40
2019-05-01T20:16:02.801Z,13.30
2019-05-01T20:18:33.484Z,13.30
2019-05-01T20:21:04.364Z,13.20
2019-05-01T20:23:35.341Z,13.10
2019-05-01T20:26:06.209Z,13.10
2019-05-01T20:28:37.474Z,13.00
2019-05-01T20:31:08.486Z,12.90
2019-05-01T20:33:43.916Z,12.80
2019-05-01T20:36:11.736Z,12.70
2019-05-01T20:38:42.605Z,12.70
2019-05-01T20:41:15.846Z,12.60
2019-05-01T20:43:45.850Z,12.60
2019-05-01T20:46:16.670Z,12.50
2019-05-01T20:48:47.122Z,12.50
2019-05-01T20:51:20.142Z,12.40
2019-05-01T20:53:49.837Z,12.40
2019-05-01T20:56:34.063Z,12.30
2019-05-01T20:59:04.972Z,12.30
2019-05-01T21:01:35.679Z,12.20
2019-05-01T21:04:31.186Z,12.20
2019-05-01T21:07:15.527Z,12.10
2019-05-01T21:09:48.436Z,12.10
2019-05-01T21:12:19.122Z,12.00
2019-05-01T21:14:49.883Z,12.00
2019-05-01T21:17:21.234Z,11.90
2019-05-01T21:19:51.345Z,11.90
2019-05-01T21:22:23.285Z,11.80
2019-05-01T21:24:53.373Z,11.80
2019-05-01T21:27:24.381Z,11.70
2019-05-01T21:29:54.747Z,11.70
2019-05-01T21:32:27.378Z,11.70
2019-05-01T21:34:56.608Z,11.60
2019-05-01T21:37:26.781Z,11.50
2019-05-01T21:39:56.830Z,11.50
2019-05-01T21:42:26.919Z,11.40
2019-05-01T21:44:57.067Z,11.40
2019-05-01T21:47:27.280Z,11.30
2019-05-01T21:49:57.524Z,11.30
2019-05-01T21:52:27.735Z,11.30
2019-05-01T21:54:57.848Z,11.20
2019-05-01T21:57:30.608Z,11.20
2019-05-01T21:59:59.698Z,11.20
2019-05-01T22:02:30.081Z,11.20
2019-05-01T22:05:03.737Z,11.10
2019-05-01T22:07:31.869Z,11.10
2019-05-01T22:10:02.048Z,11.00
2019-05-01T22:12:32.194Z,11.00
2019-05-01T22:15:10.819Z,11.00
2019-05-01T22:17:49.628Z,10.90
2019-05-01T22:20:24.896Z,11.00
2019-05-01T22:23:00.226Z,11.00
2019-05-01T22:25:37.483Z,11.00
2019-05-01T22:28:13.933Z,10.90
2019-05-01T22:31:03.178Z,10.90
2019-05-01T22:33:33.889Z,10.90
2019-05-01T22:36:04.213Z,10.90
2019-05-01T22:38:34.420Z,10.80
2019-05-01T22:41:09.725Z,10.80
2019-05-01T22:43:40.055Z,10.70
2019-05-01T22:46:16.423Z,10.70
2019-05-01T22:48:46.558Z,10.60
2019-05-01T22:51:21.523Z,10.60
2019-05-01T22:53:57.890Z,10.60
2019-05-01T22:56:28.058Z,10.60
2019-05-01T22:58:58.217Z,10.60
2019-05-01T23:01:28.618Z,10.60
2019-05-01T23:04:01.385Z,10.60
2019-05-01T23:06:31.599Z,10.60
2019-05-01T23:09:01.824Z,10.90
2019-05-01T23:11:34.070Z,11.00
2019-05-01T23:14:04.431Z,11.00
2019-05-01T23:16:39.886Z,11.10
2019-05-01T23:19:10.133Z,11.10
2019-05-01T23:21:40.396Z,11.00
2019-05-01T23:24:10.645Z,11.00
2019-05-01T23:26:40.825Z,11.00
2019-05-01T23:29:11.165Z,10.90
2019-05-01T23:31:41.475Z,10.90
2019-05-01T23:34:11.816Z,10.90
2019-05-01T23:36:41.969Z,10.80
2019-05-01T23:39:13.465Z,10.80
2019-05-01T23:41:46.898Z,10.70
2019-05-01T23:44:15.579Z,10.70
2019-05-01T23:46:45.787Z,10.60
2019-05-01T23:49:16.035Z,10.60
2019-05-01T23:51:46.172Z,10.50
2019-05-01T23:54:16.329Z,10.50
2019-05-01T23:56:46.407Z,10.50
2019-05-01T23:59:16.528Z,10.40
